createdAt,value
2022-11-07T00:02:13.644Z,100935.03
2022-11-07T00:04:42.894Z,100930.47
2022-11-07T00:07:11.693Z,100932.34
2022-11-07T00:09:40.174Z,100932.34
2022-11-07T00:12:08.974Z,100940.38
2022-11-07T00:14:37.452Z,100939.91
2022-11-07T00:17:05.692Z,100935.03
2022-11-07T00:19:34.093Z,100939.13
2022-11-07T00:22:02.252Z,100952.84
2022-11-07T00:24:30.443Z,100940.06
2022-11-07T00:26:58.334Z,100941.34
2022-11-07T00:29:28.013Z,100935.00
2022-11-07T00:31:55.913Z,100949.19
2022-11-07T00:34:24.333Z,100956.94
2022-11-07T00:36:52.492Z,100941.50
2022-11-07T00:39:20.961Z,100943.56
2022-11-07T00:41:50.136Z,100942.13
2022-11-07T00:44:18.576Z,100939.13
2022-11-07T00:46:46.592Z,100936.31
2022-11-07T00:49:14.882Z,100933.78
2022-11-07T00:51:42.957Z,100935.97
2022-11-07T00:54:11.532Z,100940.69
2022-11-07T00:56:39.692Z,100941.97
2022-11-07T00:59:08.173Z,100940.69
2022-11-07T01:01:36.092Z,100941.03
2022-11-07T01:04:24.962Z,100936.91
2022-11-07T01:06:53.133Z,100940.25
2022-11-07T01:09:22.032Z,100941.00
2022-11-07T01:11:50.994Z,100943.22
2022-11-07T01:14:22.403Z,100944.66
2022-11-07T01:16:51.507Z,100943.84
2022-11-07T01:19:20.292Z,100949.66
2022-11-07T01:21:49.091Z,100947.00
2022-11-07T01:24:19.127Z,100950.00
2022-11-07T01:26:49.924Z,100955.31
2022-11-07T01:29:19.938Z,100956.13
2022-11-07T01:31:48.733Z,100952.91
2022-11-07T01:34:18.246Z,100943.31
2022-11-07T01:36:47.328Z,100952.47
2022-11-07T01:39:15.530Z,100954.97
2022-11-07T01:41:43.611Z,100957.59
2022-11-07T01:44:12.092Z,100967.00
2022-11-07T01:46:43.767Z,100958.13
2022-11-07T01:49:37.249Z,100960.34
2022-11-07T01:52:26.488Z,100956.84
2022-11-07T01:55:10.681Z,100956.91
2022-11-07T01:57:48.162Z,100950.13
2022-11-07T02:00:20.803Z,100952.97
2022-11-07T02:02:55.825Z,100949.88
2022-11-07T02:05:31.533Z,100944.47
2022-11-07T02:08:03.529Z,100947.75
2022-11-07T02:10:34.898Z,100949.81
2022-11-07T02:13:04.014Z,100943.88
2022-11-07T02:15:35.379Z,100946.16
2022-11-07T02:18:04.172Z,100948.09
2022-11-07T02:20:32.965Z,100944.47
2022-11-07T02:23:07.264Z,100949.13
2022-11-07T02:25:36.974Z,100950.94
2022-11-07T02:28:09.282Z,100951.91
2022-11-07T02:30:39.415Z,100947.25
2022-11-07T02:33:22.288Z,100947.28
2022-11-07T02:35:52.313Z,100948.81
2022-11-07T02:38:33.123Z,100951.13
2022-11-07T02:41:10.409Z,100954.47
2022-11-07T02:43:43.394Z,100956.13
2022-11-07T02:46:13.755Z,100956.34
2022-11-07T02:48:48.785Z,100953.69
2022-11-07T02:51:17.443Z,100954.47
2022-11-07T02:53:46.702Z,100960.09
2022-11-07T02:56:15.682Z,100954.59
2022-11-07T02:58:43.685Z,100954.13
2022-11-07T03:01:12.721Z,100950.94
2022-11-07T03:03:46.565Z,100944.44
2022-11-07T03:06:18.384Z,100950.34
2022-11-07T03:08:46.413Z,100947.16
2022-11-07T03:11:14.837Z,100954.53
2022-11-07T03:13:42.862Z,100958.94
2022-11-07T03:16:11.692Z,100953.22
2022-11-07T03:18:40.063Z,100960.25
2022-11-07T03:21:08.293Z,100951.06
2022-11-07T03:23:37.095Z,100967.47
2022-11-07T03:26:05.916Z,100964.41
2022-11-07T03:28:34.383Z,100964.19
2022-11-07T03:31:04.720Z,100968.31
2022-11-07T03:33:32.943Z,100968.97
2022-11-07T03:36:01.284Z,100969.94
2022-11-07T03:38:29.453Z,100964.06
2022-11-07T03:40:57.607Z,100975.84
2022-11-07T03:43:25.624Z,100975.88
2022-11-07T03:45:53.881Z,100972.66
2022-11-07T03:48:21.773Z,100975.53
2022-11-07T03:50:49.949Z,100980.53
2022-11-07T03:53:23.840Z,100983.78
2022-11-07T03:55:55.974Z,100989.44
2022-11-07T03:58:25.923Z,100994.41
2022-11-07T04:00:54.215Z,100995.06
2022-11-07T04:03:22.213Z,101008.31
2022-11-07T04:05:50.504Z,100999.72
2022-11-07T04:08:18.894Z,101002.63
2022-11-07T04:10:47.123Z,101009.44
2022-11-07T04:13:33.879Z,101017.81
2022-11-07T04:16:21.134Z,101024.13
2022-11-07T04:18:49.297Z,101026.25
2022-11-07T04:21:17.454Z,101018.72
2022-11-07T04:23:45.396Z,101023.69
2022-11-07T04:26:32.326Z,101021.00
2022-11-07T04:29:00.194Z,101016.16
2022-11-07T04:31:28.346Z,101014.00
2022-11-07T04:33:56.355Z,101019.22
2022-11-07T04:36:24.646Z,101019.69
2022-11-07T04:38:52.523Z,101023.47
2022-11-07T04:41:25.294Z,101029.69
2022-11-07T04:43:53.292Z,101032.97
2022-11-07T04:46:23.535Z,101041.66
2022-11-07T04:48:51.524Z,101040.19
2022-11-07T04:51:22.413Z,101038.09
2022-11-07T04:53:50.418Z,101042.75
2022-11-07T04:56:18.574Z,101044.34
2022-11-07T04:58:46.564Z,101050.38
2022-11-07T05:01:14.743Z,101050.47
2022-11-07T05:03:43.064Z,101041.47
2022-11-07T05:06:14.894Z,101044.16
2022-11-07T05:08:43.054Z,101040.09
2022-11-07T05:11:11.363Z,101046.47
2022-11-07T05:13:39.303Z,101042.84
2022-11-07T05:16:15.269Z,101044.91
2022-11-07T05:18:43.798Z,101042.75
2022-11-07T05:21:12.368Z,101052.34
2022-11-07T05:23:40.517Z,101051.84
2022-11-07T05:26:10.218Z,101050.16
2022-11-07T05:28:39.906Z,101050.03
2022-11-07T05:31:12.287Z,101049.44
2022-11-07T05:33:41.099Z,101049.63
2022-11-07T05:36:15.960Z,101048.25
2022-11-07T05:38:47.712Z,101046.28
2022-11-07T05:41:17.808Z,101053.41
2022-11-07T05:43:46.457Z,101050.63
2022-11-07T05:46:15.638Z,101053.66
2022-11-07T05:48:43.561Z,101058.53
2022-11-07T05:51:12.042Z,101061.94
2022-11-07T05:53:40.273Z,101061.91
2022-11-07T05:56:09.037Z,101059.63
2022-11-07T05:58:37.800Z,101067.78
2022-11-07T06:01:07.242Z,101065.56
2022-11-07T06:03:35.414Z,101075.47
2022-11-07T06:06:04.222Z,101067.44
2022-11-07T06:08:32.270Z,101076.16
2022-11-07T06:11:05.660Z,101077.38
2022-11-07T06:13:33.814Z,101078.31
2022-11-07T06:16:02.079Z,101089.38
2022-11-07T06:18:30.203Z,101090.25
2022-11-07T06:21:02.122Z,101102.44
2022-11-07T06:23:30.280Z,101095.13
2022-11-07T06:25:58.772Z,101086.19
2022-11-07T06:28:26.920Z,101096.81
2022-11-07T06:31:00.811Z,101095.59
2022-11-07T06:33:30.603Z,101098.84
2022-11-07T06:36:11.786Z,101112.81
2022-11-07T06:38:41.015Z,101111.09
2022-11-07T06:41:13.422Z,101108.94
2022-11-07T06:43:41.801Z,101125.34
2022-11-07T06:46:14.542Z,101121.00
2022-11-07T06:48:42.613Z,101119.31
2022-11-07T06:51:12.112Z,101130.16
2022-11-07T06:53:40.845Z,101134.34
2022-11-07T06:56:16.411Z,101137.06
2022-11-07T06:58:44.632Z,101143.91
2022-11-07T07:01:15.630Z,101148.25
2022-11-07T07:03:44.683Z,101144.34
2022-11-07T07:06:16.445Z,101146.56
2022-11-07T07:08:46.133Z,101159.38
2022-11-07T07:11:16.293Z,101157.94
2022-11-07T07:13:44.363Z,101158.88
2022-11-07T07:16:13.480Z,101162.47
2022-11-07T07:18:41.762Z,101168.50
2022-11-07T07:21:13.012Z,101171.16
2022-11-07T07:23:41.807Z,101171.94
2022-11-07T07:26:16.372Z,101179.94
2022-11-07T07:28:44.691Z,101181.75
2022-11-07T07:31:16.902Z,101178.25
2022-11-07T07:33:46.993Z,101190.13
2022-11-07T07:36:20.474Z,101198.50
2022-11-07T07:38:49.623Z,101199.94
2022-11-07T07:41:19.091Z,101207.47
2022-11-07T07:43:47.342Z,101214.63
2022-11-07T07:46:21.801Z,101213.34
2022-11-07T07:48:50.291Z,101212.88
2022-11-07T07:51:18.477Z,101207.19
2022-11-07T07:53:46.589Z,101208.28
2022-11-07T07:56:15.717Z,101202.44
2022-11-07T07:58:43.961Z,101209.84
2022-11-07T08:01:12.488Z,101222.75
2022-11-07T08:04:00.227Z,101230.97
2022-11-07T08:06:29.184Z,101226.81
2022-11-07T08:08:57.372Z,101223.09
2022-11-07T08:11:25.810Z,101235.34
2022-11-07T08:13:59.757Z,101220.81
2022-11-07T08:16:30.160Z,101222.91
2022-11-07T08:18:58.287Z,101216.38
2022-11-07T08:21:27.013Z,101216.44
2022-11-07T08:23:55.240Z,101220.69
2022-11-07T08:26:23.727Z,101219.25
2022-11-07T08:28:54.118Z,101229.09
2022-11-07T08:31:22.922Z,101228.88
2022-11-07T08:33:51.054Z,101219.78
2022-11-07T08:36:19.560Z,101221.84
2022-11-07T08:38:47.793Z,101220.44
2022-11-07T08:41:21.766Z,101223.69
2022-11-07T08:43:50.511Z,101221.94
2022-11-07T08:46:18.920Z,101229.16
2022-11-07T08:48:47.082Z,101238.94
2022-11-07T08:51:15.571Z,101241.53
2022-11-07T08:53:44.052Z,101242.59
2022-11-07T08:56:12.772Z,101235.78
2022-11-07T08:58:41.001Z,101237.53
2022-11-07T09:01:10.504Z,101244.66
2022-11-07T09:03:50.714Z,101243.34
2022-11-07T09:06:23.469Z,101238.16
2022-11-07T09:08:51.631Z,101242.44
2022-11-07T09:11:20.360Z,101235.28
2022-11-07T09:13:48.520Z,101237.84
2022-11-07T09:16:19.897Z,101243.94
2022-11-07T09:18:49.930Z,101254.16
2022-11-07T09:21:22.388Z,101241.41
2022-11-07T09:23:52.583Z,101246.47
2022-11-07T09:26:21.148Z,101249.06
2022-11-07T09:28:52.995Z,101262.56
2022-11-07T09:31:22.633Z,101261.97
2022-11-07T09:33:50.481Z,101259.19
2022-11-07T09:36:18.639Z,101255.16
2022-11-07T09:38:46.506Z,101266.06
2022-11-07T09:41:26.807Z,101273.09
2022-11-07T09:44:04.951Z,101276.91
2022-11-07T09:46:44.846Z,101279.34
2022-11-07T09:49:44.344Z,101287.34
2022-11-07T09:52:51.849Z,101286.69
2022-11-07T09:55:27.037Z,101293.00
2022-11-07T09:58:01.238Z,101293.72
2022-11-07T10:00:33.278Z,101288.16
2022-11-07T10:03:03.758Z,101286.66
2022-11-07T10:05:55.527Z,101288.84
2022-11-07T10:08:45.527Z,101275.31
2022-11-07T10:11:37.606Z,101272.91
2022-11-07T10:14:25.287Z,101278.56
2022-11-07T10:16:55.648Z,101275.81
2022-11-07T10:19:29.917Z,101272.09
2022-11-07T10:22:10.256Z,101274.69
2022-11-07T10:25:17.128Z,101271.53
2022-11-07T10:27:59.006Z,101276.50
2022-11-07T10:30:27.207Z,101273.03
2022-11-07T10:33:01.127Z,101270.09
2022-11-07T10:35:32.487Z,101264.44
2022-11-07T10:38:22.418Z,101268.91
2022-11-07T10:40:51.922Z,101272.47
2022-11-07T10:43:30.159Z,101258.56
2022-11-07T10:46:00.007Z,101258.88
2022-11-07T10:48:29.847Z,101257.59
2022-11-07T10:50:58.566Z,101266.22
2022-11-07T10:53:27.767Z,101258.34
2022-11-07T10:55:56.501Z,101266.50
2022-11-07T10:58:24.397Z,101266.63
2022-11-07T11:01:03.191Z,101258.91
2022-11-07T11:03:44.460Z,101249.16
2022-11-07T11:06:24.020Z,101246.97
2022-11-07T11:08:52.925Z,101249.56
2022-11-07T11:11:33.153Z,101246.50
2022-11-07T11:14:16.742Z,101244.03
2022-11-07T11:16:45.027Z,101247.31
2022-11-07T11:19:31.220Z,101244.41
2022-11-07T11:22:00.342Z,101244.53
2022-11-07T11:24:33.378Z,101235.09
2022-11-07T11:27:12.657Z,101239.06
2022-11-07T11:29:56.388Z,101239.06
2022-11-07T11:32:32.007Z,101245.09
2022-11-07T11:35:09.439Z,101240.72
2022-11-07T11:37:43.030Z,101232.59
2022-11-07T11:40:19.228Z,101223.19
2022-11-07T11:43:17.559Z,101220.56
2022-11-07T11:46:07.111Z,101223.31
2022-11-07T11:48:44.491Z,101216.38
2022-11-07T11:51:36.978Z,101221.56
2022-11-07T11:54:10.256Z,101212.59
2022-11-07T11:56:53.447Z,101210.09
2022-11-07T11:59:22.135Z,101206.94
2022-11-07T12:02:15.192Z,101202.16
2022-11-07T12:05:10.858Z,101205.16
2022-11-07T12:07:55.847Z,101195.41
2022-11-07T12:10:29.775Z,101202.41
2022-11-07T12:13:22.251Z,101191.88
2022-11-07T12:16:15.642Z,101201.97
2022-11-07T12:19:04.217Z,101197.69
2022-11-07T12:21:36.648Z,101195.78
2022-11-07T12:24:36.829Z,101191.00
2022-11-07T12:27:20.279Z,101184.72
2022-11-07T12:30:21.459Z,101181.28
2022-11-07T12:33:28.070Z,101180.47
2022-11-07T12:36:25.308Z,101172.09
2022-11-07T12:38:53.406Z,101169.06
2022-11-07T12:41:52.929Z,101167.34
2022-11-07T12:44:49.367Z,101164.91
2022-11-07T12:47:46.906Z,101159.09
2022-11-07T12:50:43.004Z,101156.09
2022-11-07T12:54:00.660Z,101159.88
2022-11-07T12:56:35.488Z,101160.28
2022-11-07T12:59:10.728Z,101163.75
2022-11-07T13:01:48.967Z,101154.44
2022-11-07T13:04:24.868Z,101160.69
2022-11-07T13:07:06.258Z,101165.28
2022-11-07T13:09:51.213Z,101159.91
2022-11-07T13:12:30.412Z,101159.03
2022-11-07T13:14:58.905Z,101165.59
2022-11-07T13:17:38.318Z,101162.88
2022-11-07T13:20:26.535Z,101160.13
2022-11-07T13:23:02.423Z,101148.78
2022-11-07T13:25:32.542Z,101151.72
2022-11-07T13:28:04.811Z,101144.28
2022-11-07T13:30:38.414Z,101143.91
2022-11-07T13:33:09.764Z,101148.06
2022-11-07T13:35:39.210Z,101150.84
2022-11-07T13:38:24.333Z,101152.13
2022-11-07T13:40:59.212Z,101160.81
2022-11-07T13:43:39.581Z,101151.56
2022-11-07T13:46:17.281Z,101151.31
2022-11-07T13:48:56.962Z,101146.19
2022-11-07T13:51:51.361Z,101157.47
2022-11-07T13:54:30.752Z,101163.59
2022-11-07T13:57:09.453Z,101151.59
2022-11-07T13:59:53.025Z,101157.94
2022-11-07T14:02:27.976Z,101163.78
2022-11-07T14:05:19.263Z,101156.03
2022-11-07T14:07:51.503Z,101160.63
2022-11-07T14:10:47.378Z,101157.13
2022-11-07T14:13:30.482Z,101161.19
2022-11-07T14:16:35.804Z,101156.34
2022-11-07T14:19:14.524Z,101166.44
2022-11-07T14:21:46.204Z,101166.50
2022-11-07T14:24:27.804Z,101158.31
2022-11-07T14:27:02.063Z,101163.00
2022-11-07T14:29:30.829Z,101160.34
2022-11-07T14:32:04.744Z,101169.50
2022-11-07T14:34:36.912Z,101165.97
2022-11-07T14:37:16.829Z,101171.44
2022-11-07T14:39:54.512Z,101164.13
2022-11-07T14:42:25.749Z,101164.38
2022-11-07T14:44:57.891Z,101172.97
2022-11-07T14:47:34.693Z,101167.09
2022-11-07T14:50:04.470Z,101167.28
2022-11-07T14:53:11.640Z,101162.38
2022-11-07T14:55:47.518Z,101159.91
2022-11-07T14:58:18.973Z,101158.53
2022-11-07T15:00:56.122Z,101145.50
2022-11-07T15:03:32.441Z,101158.28
2022-11-07T15:06:01.921Z,101153.75
2022-11-07T15:08:37.784Z,101150.38
2022-11-07T15:11:15.162Z,101143.19
2022-11-07T15:13:48.183Z,101147.72
2022-11-07T15:16:23.078Z,101153.00
2022-11-07T15:19:01.135Z,101149.66
2022-11-07T15:21:51.362Z,101151.75
2022-11-07T15:24:43.853Z,101153.09
2022-11-07T15:27:14.656Z,101159.47
2022-11-07T15:29:57.772Z,101152.09
2022-11-07T15:32:32.651Z,101152.16
2022-11-07T15:35:30.210Z,101153.53
2022-11-07T15:38:15.771Z,101152.44
2022-11-07T15:40:44.495Z,101156.03
2022-11-07T15:43:12.655Z,101156.84
2022-11-07T15:45:42.418Z,101151.00
2022-11-07T15:48:17.859Z,101149.94
2022-11-07T15:50:49.043Z,101149.56
2022-11-07T15:53:26.093Z,101150.72
2022-11-07T15:55:57.461Z,101153.69
2022-11-07T15:58:28.492Z,101154.91
2022-11-07T16:00:59.216Z,101151.41
2022-11-07T16:03:28.431Z,101143.22
2022-11-07T16:06:02.251Z,101152.88
2022-11-07T16:08:31.052Z,101154.13
2022-11-07T16:11:01.769Z,101158.91
2022-11-07T16:13:30.245Z,101160.47
2022-11-07T16:16:01.274Z,101159.41
2022-11-07T16:18:37.142Z,101167.00
2022-11-07T16:21:05.733Z,101172.09
2022-11-07T16:23:33.772Z,101163.97
2022-11-07T16:26:02.893Z,101161.97
2022-11-07T16:28:35.532Z,101162.66
2022-11-07T16:31:04.653Z,101162.16
2022-11-07T16:33:33.463Z,101168.59
2022-11-07T16:36:08.012Z,101180.00
2022-11-07T16:38:36.812Z,101178.03
2022-11-07T16:41:05.325Z,101173.34
2022-11-07T16:43:35.461Z,101179.69
2022-11-07T16:46:05.762Z,101173.19
2022-11-07T16:48:38.093Z,101172.72
2022-11-07T16:51:06.894Z,101175.53
2022-11-07T16:53:35.363Z,101179.28
2022-11-07T16:56:04.481Z,101187.97
2022-11-07T16:58:34.885Z,101190.22
2022-11-07T17:01:06.382Z,101191.69
2022-11-07T17:03:34.754Z,101192.22
2022-11-07T17:06:04.503Z,101203.16
2022-11-07T17:08:41.600Z,101207.66
2022-11-07T17:11:14.242Z,101216.06
2022-11-07T17:13:42.111Z,101206.53
2022-11-07T17:16:35.211Z,101213.81
2022-11-07T17:19:05.293Z,101216.19
2022-11-07T17:21:37.050Z,101210.69
2022-11-07T17:24:05.770Z,101218.31
2022-11-07T17:26:38.081Z,101224.38
2022-11-07T17:29:09.121Z,101224.00
2022-11-07T17:31:37.505Z,101226.03
2022-11-07T17:47:03.201Z,101233.72
2022-11-07T17:49:32.352Z,101231.75
2022-11-07T17:52:01.249Z,101237.25
2022-11-07T17:54:29.934Z,101241.88
2022-11-07T17:56:58.289Z,101245.69
2022-11-07T17:59:27.010Z,101243.16
2022-11-07T18:01:55.198Z,101249.91
2022-11-07T18:04:24.609Z,101246.22
2022-11-07T18:06:52.829Z,101244.91
2022-11-07T18:09:21.333Z,101241.81
2022-11-07T18:11:49.702Z,101250.81
2022-11-07T18:14:19.069Z,101254.28
2022-11-07T18:16:47.154Z,101261.66
2022-11-07T18:19:17.695Z,101257.13
2022-11-07T18:21:46.335Z,101257.03
2022-11-07T18:24:16.140Z,101258.34
2022-11-07T18:26:44.206Z,101260.28
2022-11-07T18:29:13.836Z,101259.78
2022-11-07T18:31:41.854Z,101254.72
2022-11-07T18:34:12.230Z,101254.19
2022-11-07T18:36:43.016Z,101250.25
2022-11-07T18:39:17.775Z,101258.94
2022-11-07T18:41:46.231Z,101265.19
2022-11-07T18:44:15.110Z,101260.16
2022-11-07T18:46:43.885Z,101256.97
2022-11-07T18:49:14.514Z,101254.91
2022-11-07T18:51:44.190Z,101261.91
2022-11-07T18:54:14.381Z,101261.28
2022-11-07T18:56:43.645Z,101271.69
2022-11-07T18:59:12.149Z,101270.44
2022-11-07T19:01:40.631Z,101274.06
2022-11-07T19:04:11.987Z,101270.63
2022-11-07T19:06:56.174Z,101274.88
2022-11-07T19:09:30.716Z,101270.59
2022-11-07T19:12:01.580Z,101269.63
2022-11-07T19:14:31.446Z,101271.88
2022-11-07T19:16:59.796Z,101271.28
2022-11-07T19:19:30.088Z,101269.22
2022-11-07T19:21:58.316Z,101269.56
2022-11-07T19:24:26.796Z,101273.66
2022-11-07T19:26:55.117Z,101281.09
2022-11-07T19:29:23.763Z,101273.16
2022-11-07T19:31:52.306Z,101276.97
2022-11-07T19:34:21.606Z,101277.31
2022-11-07T19:36:49.767Z,101278.09
2022-11-07T19:39:18.355Z,101285.06
2022-11-07T19:41:46.567Z,101279.97
2022-11-07T19:44:16.067Z,101278.88
2022-11-07T19:46:45.095Z,101279.81
2022-11-07T19:49:13.647Z,101285.66
2022-11-07T19:51:41.795Z,101283.59
2022-11-07T19:54:10.226Z,101280.94
2022-11-07T19:56:39.869Z,101285.34
2022-11-07T19:59:08.396Z,101284.56
2022-11-07T20:01:37.110Z,101275.06
2022-11-07T20:04:05.860Z,101287.25
2022-11-07T20:06:37.283Z,101296.72
2022-11-07T20:09:08.564Z,101293.06
2022-11-07T20:11:38.340Z,101296.84
2022-11-07T20:14:07.105Z,101302.53
2022-11-07T20:16:39.106Z,101308.97
2022-11-07T20:19:07.856Z,101309.44
2022-11-07T20:21:35.956Z,101312.47
2022-11-07T20:24:05.899Z,101307.94
2022-11-07T20:26:34.047Z,101318.44
2022-11-07T20:29:03.252Z,101320.56
2022-11-07T20:31:34.573Z,101319.75
2022-11-07T20:34:06.469Z,101315.25
2022-11-07T20:36:35.678Z,101314.69
2022-11-07T20:39:05.527Z,101314.75
2022-11-07T20:41:36.098Z,101315.66
2022-11-07T20:44:07.437Z,101318.22
2022-11-07T20:46:38.908Z,101313.91
2022-11-07T20:49:09.549Z,101321.47
2022-11-07T20:51:38.388Z,101326.38
2022-11-07T20:54:07.578Z,101326.28
2022-11-07T20:56:36.128Z,101325.28
2022-11-07T20:59:06.629Z,101315.69
2022-11-07T21:01:38.214Z,101325.78
2022-11-07T21:04:18.567Z,101320.81
2022-11-07T21:06:46.689Z,101319.94
2022-11-07T21:09:15.290Z,101320.38
2022-11-07T21:11:43.348Z,101323.00
2022-11-07T21:14:11.900Z,101321.94
2022-11-07T21:16:40.229Z,101320.06
2022-11-07T21:19:09.851Z,101325.25
2022-11-07T21:21:37.878Z,101325.88
2022-11-07T21:24:06.652Z,101329.91
2022-11-07T21:26:39.417Z,101321.53
2022-11-07T21:29:09.618Z,101327.56
2022-11-07T21:31:39.391Z,101316.00
2022-11-07T21:34:11.282Z,101324.16
2022-11-07T21:36:39.399Z,101324.31
2022-11-07T21:39:08.070Z,101321.53
2022-11-07T21:41:36.879Z,101327.72
2022-11-07T21:44:05.578Z,101319.91
2022-11-07T21:46:37.266Z,101322.91
2022-11-07T21:49:06.606Z,101317.03
2022-11-07T21:51:35.757Z,101318.63
2022-11-07T21:54:06.228Z,101317.31
2022-11-07T21:56:39.481Z,101326.09
2022-11-07T21:59:12.369Z,101322.63
2022-11-07T22:01:41.645Z,101330.56
2022-11-07T22:04:13.692Z,101330.34
2022-11-07T22:06:45.356Z,101323.19
2022-11-07T22:09:17.900Z,101328.16
2022-11-07T22:11:45.961Z,101322.47
2022-11-07T22:14:17.168Z,101325.03
2022-11-07T22:16:46.277Z,101322.81
2022-11-07T22:19:16.938Z,101319.84
2022-11-07T22:21:45.011Z,101313.13
2022-11-07T22:24:13.327Z,101317.56
2022-11-07T22:26:41.471Z,101312.53
2022-11-07T22:29:09.991Z,101310.09
2022-11-07T22:31:38.119Z,101314.31
2022-11-07T22:34:06.520Z,101316.41
2022-11-07T22:36:34.708Z,101314.53
2022-11-07T22:39:04.727Z,101306.47
2022-11-07T22:41:33.420Z,101299.56
2022-11-07T22:44:17.832Z,101301.22
2022-11-07T22:46:47.891Z,101293.88
2022-11-07T22:49:15.968Z,101290.41
2022-11-07T22:51:44.438Z,101294.03
2022-11-07T22:54:14.297Z,101285.22
2022-11-07T22:56:42.850Z,101288.41
2022-11-07T22:59:11.838Z,101280.25
2022-11-07T23:01:43.021Z,101282.47
2022-11-07T23:04:15.568Z,101284.19
2022-11-07T23:06:45.267Z,101283.56
2022-11-07T23:09:15.658Z,101278.88
2022-11-07T23:11:46.516Z,101276.91
2022-11-07T23:14:19.728Z,101271.34
2022-11-07T23:16:53.897Z,101272.41
2022-11-07T23:19:25.267Z,101269.66
2022-11-07T23:21:57.499Z,101275.59
2022-11-07T23:24:25.748Z,101273.91
2022-11-07T23:26:54.278Z,101269.16
2022-11-07T23:29:24.779Z,101270.91
2022-11-07T23:31:53.715Z,101269.78
2022-11-07T23:34:22.933Z,101266.94
2022-11-07T23:36:52.048Z,101277.06
2022-11-07T23:39:22.612Z,101274.09
2022-11-07T23:41:51.099Z,101274.97
2022-11-07T23:44:19.198Z,101271.50
2022-11-07T23:47:05.898Z,101275.69
2022-11-07T23:49:52.598Z,101276.56
2022-11-07T23:52:21.530Z,101269.09
2022-11-07T23:55:09.790Z,101272.75
2022-11-07T23:57:57.909Z,101274.59
